createdAt,value
2023-03-29T00:10:56.359Z,511.00
2023-03-29T00:18:56.356Z,514.00
2023-03-29T00:26:56.334Z,516.00
2023-03-29T00:34:56.370Z,517.00
2023-03-29T00:42:56.370Z,514.00
2023-03-29T00:50:56.431Z,513.00
2023-03-29T01:06:56.643Z,513.00
2023-03-29T01:14:56.460Z,510.00
2023-03-29T01:22:56.509Z,506.00
2023-03-29T01:30:56.548Z,509.00
2023-03-29T01:38:56.587Z,512.00
2023-03-29T01:46:56.585Z,509.00
2023-03-29T02:02:56.811Z,505.00
2023-03-29T02:10:56.707Z,497.00
2023-03-29T02:18:56.665Z,503.00
2023-03-29T02:26:56.727Z,495.00
2023-03-29T02:34:56.704Z,495.00
2023-03-29T02:42:56.815Z,495.00
2023-03-29T02:50:56.820Z,492.00
2023-03-29T02:54:57.843Z,489.00
2023-03-29T03:02:57.796Z,483.00
2023-03-29T03:10:56.926Z,482.00
2023-03-29T03:18:56.976Z,488.00
2023-03-29T03:26:56.983Z,496.00
2023-03-29T03:30:58.026Z,499.00
2023-03-29T03:38:57.070Z,493.00
2023-03-29T03:46:57.126Z,492.00
2023-03-29T03:54:57.096Z,486.00
2023-03-29T04:02:57.267Z,492.00
2023-03-29T04:06:58.144Z,496.00
2023-03-29T04:10:58.181Z,499.00
2023-03-29T04:18:57.256Z,491.00
2023-03-29T04:26:57.249Z,492.00
2023-03-29T04:34:57.313Z,496.00
2023-03-29T04:42:57.327Z,493.00
2023-03-29T04:50:57.406Z,492.00
2023-03-29T04:58:57.426Z,484.00
2023-03-29T05:06:57.582Z,484.00
2023-03-29T05:14:57.521Z,483.00
2023-03-29T05:18:58.557Z,483.00
2023-03-29T05:34:58.062Z,485.00
2023-03-29T05:42:58.078Z,510.00
2023-03-29T05:46:59.065Z,527.00
2023-03-29T05:54:57.793Z,590.00
2023-03-29T05:58:59.085Z,662.00
2023-03-29T06:06:57.579Z,787.00
2023-03-29T06:14:57.582Z,903.00
2023-03-29T06:18:58.575Z,946.00
2023-03-29T06:22:58.607Z,999.00
2023-03-29T06:26:58.607Z,1059.00
2023-03-29T06:30:58.615Z,1061.00
2023-03-29T06:34:58.127Z,1086.00
2023-03-29T06:38:58.089Z,1136.00
2023-03-29T06:42:58.194Z,1167.00
2023-03-29T06:46:58.094Z,1220.00
2023-03-29T06:50:58.095Z,1245.00
2023-03-29T06:54:58.095Z,1235.00
2023-03-29T06:58:58.130Z,1233.00
2023-03-29T07:02:58.167Z,1222.00
2023-03-29T07:06:58.094Z,1207.00
2023-03-29T07:10:58.109Z,1193.00
2023-03-29T07:14:57.677Z,1187.00
2023-03-29T07:18:57.619Z,1175.00
2023-03-29T07:22:57.601Z,1161.00
2023-03-29T07:27:04.131Z,1150.00
2023-03-29T07:30:57.669Z,1144.00
2023-03-29T07:34:57.619Z,1139.00
2023-03-29T07:38:57.187Z,1120.00
2023-03-29T07:42:57.221Z,1185.00
2023-03-29T07:46:57.163Z,1256.00
2023-03-29T07:50:57.139Z,1328.00
2023-03-29T07:54:56.625Z,1345.00
2023-03-29T07:58:56.611Z,1336.00
2023-03-29T08:02:56.740Z,1321.00
2023-03-29T08:06:56.620Z,1307.00
2023-03-29T08:10:56.613Z,1287.00
2023-03-29T08:14:56.620Z,1279.00
2023-03-29T08:18:56.152Z,1271.00
2023-03-29T08:22:56.124Z,1264.00
2023-03-29T08:26:55.769Z,1259.00
2023-03-29T08:30:56.152Z,1239.00
2023-03-29T08:34:55.600Z,1230.00
2023-03-29T08:38:55.641Z,1220.00
2023-03-29T08:42:55.632Z,1204.00
2023-03-29T08:46:55.716Z,1185.00
2023-03-29T08:50:55.433Z,1177.00
2023-03-29T08:54:55.631Z,1167.00
2023-03-29T08:58:55.638Z,1168.00
2023-03-29T09:02:55.712Z,1159.00
2023-03-29T09:06:55.695Z,1156.00
2023-03-29T09:10:55.453Z,1149.00
2023-03-29T09:14:55.637Z,1135.00
2023-03-29T09:18:55.638Z,1131.00
2023-03-29T09:22:55.544Z,1119.00
2023-03-29T09:26:55.650Z,930.00
2023-03-29T09:30:56.652Z,649.00
2023-03-29T09:34:56.161Z,616.00
2023-03-29T09:38:55.185Z,650.00
2023-03-29T09:42:56.216Z,760.00
2023-03-29T09:46:56.654Z,828.00
2023-03-29T09:50:56.653Z,893.00
2023-03-29T09:54:56.677Z,972.00
2023-03-29T09:58:56.652Z,1017.00
2023-03-29T10:02:56.505Z,1076.00
2023-03-29T10:06:56.688Z,1139.00
2023-03-29T10:14:55.160Z,1251.00
2023-03-29T10:18:56.002Z,1297.00
2023-03-29T10:22:56.184Z,1339.00
2023-03-29T10:30:54.668Z,1457.00
2023-03-29T10:34:55.677Z,1514.00
2023-03-29T10:38:55.411Z,1554.00
2023-03-29T10:42:55.709Z,1610.00
2023-03-29T10:46:55.170Z,1642.00
2023-03-29T10:50:55.171Z,1664.00
2023-03-29T10:54:55.177Z,1659.00
2023-03-29T10:58:55.209Z,1632.00
2023-03-29T11:02:55.267Z,1659.00
2023-03-29T11:06:55.179Z,1724.00
2023-03-29T11:10:55.679Z,1786.00
2023-03-29T11:14:55.135Z,1780.00
2023-03-29T11:18:55.187Z,1750.00
2023-03-29T11:22:55.183Z,1725.00
2023-03-29T11:26:55.189Z,1706.00
2023-03-29T11:30:54.661Z,1701.00
2023-03-29T11:34:54.688Z,1680.00
2023-03-29T11:38:54.688Z,1652.00
2023-03-29T11:42:54.694Z,1641.00
2023-03-29T11:46:54.451Z,1636.00
2023-03-29T11:50:54.702Z,1619.00
2023-03-29T11:54:54.481Z,1688.00
2023-03-29T11:58:54.698Z,1754.00
2023-03-29T12:02:55.326Z,1787.00
2023-03-29T12:06:55.202Z,1102.00
2023-03-29T12:10:55.197Z,824.00
2023-03-29T12:14:55.236Z,955.00
2023-03-29T12:18:55.232Z,1100.00
2023-03-29T12:22:55.205Z,1205.00
2023-03-29T12:26:55.309Z,1280.00
2023-03-29T12:30:55.857Z,1373.00
2023-03-29T12:34:55.774Z,1432.00
2023-03-29T12:38:55.714Z,1486.00
2023-03-29T12:42:55.218Z,1557.00
2023-03-29T12:46:55.031Z,1625.00
2023-03-29T12:50:55.251Z,1682.00
2023-03-29T12:54:55.269Z,1755.00
2023-03-29T12:58:54.722Z,997.00
2023-03-29T13:02:54.770Z,812.00
2023-03-29T13:06:54.768Z,847.00
2023-03-29T13:10:54.687Z,881.00
2023-03-29T13:14:55.250Z,990.00
2023-03-29T13:18:54.736Z,1029.00
2023-03-29T13:22:54.753Z,1097.00
2023-03-29T13:26:54.517Z,1179.00
2023-03-29T13:30:54.761Z,1233.00
2023-03-29T13:34:54.381Z,1296.00
2023-03-29T13:38:54.184Z,1361.00
2023-03-29T13:42:54.008Z,1395.00
2023-03-29T13:46:54.307Z,1455.00
2023-03-29T13:50:54.237Z,1441.00
2023-03-29T13:54:54.268Z,1417.00
2023-03-29T13:58:54.248Z,1400.00
2023-03-29T14:02:54.276Z,1300.00
2023-03-29T14:06:54.250Z,1291.00
2023-03-29T14:10:53.835Z,1187.00
2023-03-29T14:14:59.099Z,1166.00
2023-03-29T14:18:53.748Z,1151.00
2023-03-29T14:22:53.773Z,1128.00
2023-03-29T14:26:53.308Z,1127.00
2023-03-29T14:30:53.250Z,1123.00
2023-03-29T14:34:53.251Z,1115.00
2023-03-29T14:38:53.277Z,1106.00
2023-03-29T14:42:53.283Z,1099.00
2023-03-29T14:46:52.873Z,1086.00
2023-03-29T14:50:52.644Z,1075.00
2023-03-29T14:54:52.758Z,1075.00
2023-03-29T14:58:52.439Z,1062.00
2023-03-29T15:02:52.439Z,1052.00
2023-03-29T15:06:52.205Z,1054.00
2023-03-29T15:10:52.095Z,1048.00
2023-03-29T15:14:52.017Z,1038.00
2023-03-29T15:18:51.892Z,1036.00
2023-03-29T15:22:52.272Z,1035.00
2023-03-29T15:26:51.686Z,1029.00
2023-03-29T15:31:04.753Z,1024.00
2023-03-29T15:34:51.469Z,1011.00
2023-03-29T15:38:51.354Z,1005.00
2023-03-29T15:42:51.223Z,1003.00
2023-03-29T15:46:51.223Z,1002.00
2023-03-29T15:50:51.040Z,1001.00
2023-03-29T15:54:51.296Z,995.00
2023-03-29T15:58:50.878Z,988.00
2023-03-29T16:02:50.825Z,975.00
2023-03-29T16:06:50.679Z,975.00
2023-03-29T16:10:50.603Z,969.00
2023-03-29T16:14:50.527Z,965.00
2023-03-29T16:18:50.467Z,961.00
2023-03-29T16:22:50.365Z,950.00
2023-03-29T16:26:50.974Z,947.00
2023-03-29T16:30:50.168Z,990.00
2023-03-29T16:34:50.095Z,988.00
2023-03-29T16:38:49.968Z,1066.00
2023-03-29T16:42:49.872Z,1133.00
2023-03-29T16:46:49.764Z,1191.00
2023-03-29T16:50:49.816Z,1241.00
2023-03-29T16:54:49.566Z,1300.00
2023-03-29T16:58:49.569Z,1352.00
2023-03-29T17:02:49.423Z,1399.00
2023-03-29T17:06:49.428Z,1445.00
2023-03-29T17:10:49.501Z,1485.00
2023-03-29T17:14:49.599Z,1518.00
2023-03-29T17:18:49.687Z,1538.00
2023-03-29T17:22:49.781Z,1564.00
2023-03-29T17:26:49.823Z,1578.00
2023-03-29T17:30:49.927Z,1602.00
2023-03-29T17:34:49.991Z,1582.00
2023-03-29T17:38:50.127Z,1584.00
2023-03-29T17:42:50.306Z,1556.00
2023-03-29T17:46:50.154Z,1508.00
2023-03-29T17:50:49.978Z,1488.00
2023-03-29T17:54:49.888Z,1447.00
2023-03-29T17:58:49.745Z,1425.00
2023-03-29T18:02:49.711Z,1416.00
2023-03-29T18:06:49.532Z,1405.00
2023-03-29T18:10:49.425Z,1392.00
2023-03-29T18:14:49.313Z,1380.00
2023-03-29T18:18:49.232Z,1371.00
2023-03-29T18:22:49.207Z,1361.00
2023-03-29T18:26:49.150Z,1350.00
2023-03-29T18:30:49.054Z,1340.00
2023-03-29T18:34:48.966Z,1331.00
2023-03-29T18:38:48.895Z,1324.00
2023-03-29T18:42:48.863Z,1318.00
2023-03-29T18:46:48.793Z,1317.00
2023-03-29T18:50:48.699Z,1311.00
2023-03-29T18:54:48.628Z,1295.00
2023-03-29T18:58:48.579Z,1287.00
2023-03-29T19:02:48.629Z,1274.00
2023-03-29T19:06:48.397Z,1264.00
2023-03-29T19:10:48.337Z,1248.00
2023-03-29T19:14:48.306Z,1240.00
2023-03-29T19:18:48.222Z,1235.00
2023-03-29T19:22:48.186Z,1229.00
2023-03-29T19:26:48.131Z,1214.00
2023-03-29T19:30:48.145Z,1207.00
2023-03-29T19:34:48.050Z,1190.00
2023-03-29T19:38:48.020Z,1187.00
2023-03-29T19:42:47.986Z,1174.00
2023-03-29T19:46:48.074Z,1162.00
2023-03-29T19:50:47.969Z,1154.00
2023-03-29T19:54:47.949Z,1147.00
2023-03-29T19:58:47.938Z,1145.00
2023-03-29T20:02:47.996Z,1128.00
2023-03-29T20:06:47.887Z,1119.00
2023-03-29T20:10:47.869Z,1126.00
2023-03-29T20:14:47.860Z,1117.00
2023-03-29T20:18:47.913Z,1096.00
2023-03-29T20:22:47.854Z,1087.00
2023-03-29T20:26:47.866Z,1073.00
2023-03-29T20:30:47.887Z,1057.00
2023-03-29T20:34:47.915Z,1045.00
2023-03-29T20:38:47.891Z,1039.00
2023-03-29T20:42:47.920Z,1031.00
2023-03-29T20:46:47.970Z,1023.00
2023-03-29T20:50:47.965Z,1013.00
2023-03-29T20:54:47.917Z,1008.00
2023-03-29T20:58:47.909Z,1006.00
2023-03-29T21:02:47.997Z,1002.00
2023-03-29T21:06:47.940Z,987.00
2023-03-29T21:10:47.875Z,975.00
2023-03-29T21:14:47.864Z,971.00
2023-03-29T21:18:47.890Z,970.00
2023-03-29T21:22:47.902Z,971.00
2023-03-29T21:26:47.872Z,963.00
2023-03-29T21:30:47.897Z,954.00
2023-03-29T21:34:47.872Z,945.00
2023-03-29T21:38:47.893Z,937.00
2023-03-29T21:42:47.869Z,925.00
2023-03-29T21:46:47.920Z,923.00
2023-03-29T21:50:47.871Z,925.00
2023-03-29T21:54:47.905Z,917.00
2023-03-29T21:58:47.881Z,913.00
2023-03-29T22:02:48.028Z,905.00
2023-03-29T22:06:47.870Z,901.00
2023-03-29T22:10:47.897Z,893.00
2023-03-29T22:14:47.905Z,886.00
2023-03-29T22:18:47.919Z,885.00
2023-03-29T22:22:47.934Z,884.00
2023-03-29T22:26:48.007Z,887.00
2023-03-29T22:30:47.979Z,880.00
2023-03-29T22:34:47.993Z,868.00
2023-03-29T22:38:48.020Z,864.00
2023-03-29T22:42:48.069Z,858.00
2023-03-29T22:46:48.100Z,854.00
2023-03-29T22:50:48.149Z,847.00
2023-03-29T22:54:48.134Z,845.00
2023-03-29T22:58:48.178Z,851.00
2023-03-29T23:02:48.234Z,851.00
